createdAt,value
2018-04-17T00:00:19.881Z,66.7
2018-04-17T00:00:46.041Z,66.61
2018-04-17T00:01:12.178Z,66.61
2018-04-17T00:01:38.315Z,66.7
2018-04-17T00:02:04.462Z,66.7
2018-04-17T00:02:30.621Z,67.08
2018-04-17T00:02:56.765Z,67.08
2018-04-17T00:03:22.909Z,67.66
2018-04-17T00:03:49.044Z,67.27
2018-04-17T00:04:15.192Z,67.08
2018-04-17T00:04:41.321Z,66.99
2018-04-17T00:05:07.457Z,67.37
2018-04-17T00:05:33.640Z,67.27
2018-04-17T00:05:59.786Z,67.18
2018-04-17T00:06:25.928Z,67.08
2018-04-17T00:06:52.094Z,67.47
2018-04-17T00:07:18.248Z,67.76
2018-04-17T00:07:44.407Z,67.76
2018-04-17T00:08:10.568Z,67.85
2018-04-17T00:08:36.709Z,67.76
2018-04-17T00:09:02.841Z,67.37
2018-04-17T00:09:28.982Z,67.85
2018-04-17T00:09:55.118Z,67.91
2018-04-17T00:10:21.279Z,67.85
2018-04-17T00:10:48.049Z,67.76
2018-04-17T00:11:14.182Z,67.85
2018-04-17T00:11:40.320Z,67.56
2018-04-17T00:12:06.466Z,68.13
2018-04-17T00:12:32.628Z,67.43
2018-04-17T00:12:58.765Z,68.01
2018-04-17T00:13:24.905Z,68.23
2018-04-17T00:13:51.046Z,68.29
2018-04-17T00:14:17.179Z,68.13
2018-04-17T00:14:43.324Z,68.2
2018-04-17T00:15:09.466Z,68.42
2018-04-17T00:15:35.607Z,68.23
2018-04-17T00:16:01.746Z,68.04
2018-04-17T00:16:27.880Z,68.2
2018-04-17T00:16:54.027Z,68.1
2018-04-17T00:17:20.194Z,68.33
2018-04-17T00:17:46.329Z,68.2
2018-04-17T00:18:12.510Z,68.39
2018-04-17T00:18:38.653Z,68.2
2018-04-17T00:19:04.790Z,68.2
2018-04-17T00:19:30.936Z,68.1
2018-04-17T00:19:57.125Z,68.01
2018-04-17T00:20:23.262Z,67.94
2018-04-17T00:20:49.405Z,68.04
2018-04-17T00:21:15.546Z,67.76
2018-04-17T00:21:41.684Z,68.13
2018-04-17T00:22:07.820Z,68.29
2018-04-17T00:22:33.960Z,68.1
2018-04-17T00:23:00.102Z,68.1
2018-04-17T00:23:26.240Z,68.1
2018-04-17T00:23:52.386Z,68.01
2018-04-17T00:24:18.519Z,68.13
2018-04-17T00:24:44.665Z,68.01
2018-04-17T00:25:10.805Z,68.23
2018-04-17T00:25:36.957Z,68.29
2018-04-17T00:26:03.098Z,68.77
2018-04-17T00:26:29.256Z,68.77
2018-04-17T00:26:55.396Z,68.77
2018-04-17T00:27:21.532Z,68.68
2018-04-17T00:27:47.673Z,68.87
2018-04-17T00:28:13.833Z,68.39
2018-04-17T00:28:39.975Z,68.49
2018-04-17T00:29:06.119Z,68.77
2018-04-17T00:29:32.257Z,68.77
2018-04-17T00:29:58.393Z,68.68
2018-04-17T00:30:24.563Z,68.49
2018-04-17T00:30:50.695Z,68.58
2018-04-17T00:31:16.835Z,68.68
2018-04-17T00:31:42.992Z,68.68
2018-04-17T00:32:09.128Z,68.49
2018-04-17T00:32:35.266Z,68.68
2018-04-17T00:33:01.415Z,68.49
2018-04-17T00:33:27.545Z,68.49
2018-04-17T00:33:53.690Z,68.39
2018-04-17T00:34:19.835Z,68.58
2018-04-17T00:34:46.007Z,68.49
2018-04-17T00:35:12.145Z,68.49
2018-04-17T00:35:38.279Z,68.68
2018-04-17T00:36:04.422Z,68.39
2018-04-17T00:36:30.558Z,68.49
2018-04-17T00:36:56.694Z,68.68
2018-04-17T00:37:22.834Z,68.77
2018-04-17T00:37:49.030Z,68.87
2018-04-17T00:38:15.193Z,68.87
2018-04-17T00:38:41.326Z,68.96
2018-04-17T00:39:07.475Z,68.68
2018-04-17T00:39:33.615Z,68.49
2018-04-17T00:39:59.745Z,68.68
2018-04-17T00:40:25.885Z,68.96
2018-04-17T00:40:52.027Z,68.39
2018-04-17T00:41:18.190Z,68.58
2018-04-17T00:41:44.331Z,68.49
2018-04-17T00:42:10.465Z,69.35
2018-04-17T00:42:36.603Z,69.06
2018-04-17T00:43:02.747Z,69.15
2018-04-17T00:43:28.887Z,68.96
2018-04-17T00:43:55.027Z,69.35
2018-04-17T00:44:21.169Z,69.06
2018-04-17T00:44:47.319Z,69.35
2018-04-17T00:45:13.525Z,68.39
2018-04-17T00:45:39.650Z,68.58
2018-04-17T00:46:05.789Z,68.96
2018-04-17T00:46:31.925Z,68.96
2018-04-17T00:46:58.093Z,69.15
2018-04-17T00:47:24.231Z,68.96
2018-04-17T00:47:50.439Z,69.25
2018-04-17T00:48:16.559Z,69.15
2018-04-17T00:48:42.700Z,68.96
2018-04-17T00:49:08.837Z,69.06
2018-04-17T00:49:34.977Z,68.96
2018-04-17T00:50:01.140Z,68.96
2018-04-17T00:50:27.274Z,69.15
2018-04-17T00:50:53.415Z,69.15
2018-04-17T00:51:19.556Z,69.15
2018-04-17T00:51:45.691Z,69.15
2018-04-17T00:52:11.840Z,68.96
2018-04-17T00:52:37.972Z,69.15
2018-04-17T00:53:04.115Z,68.96
2018-04-17T00:53:30.258Z,69.15
2018-04-17T00:53:56.390Z,69.15
2018-04-17T00:54:22.529Z,68.96
2018-04-17T00:54:48.670Z,68.96
2018-04-17T00:55:14.813Z,68.68
2018-04-17T00:55:40.956Z,68.87
2018-04-17T00:56:07.128Z,68.87
2018-04-17T00:56:33.252Z,68.87
2018-04-17T00:56:59.397Z,68.96
2018-04-17T00:57:25.530Z,68.77
2018-04-17T00:57:51.671Z,68.77
2018-04-17T00:58:17.817Z,69.15
2018-04-17T00:58:43.982Z,69.06
2018-04-17T00:59:10.143Z,69.06
2018-04-17T00:59:36.283Z,69.15
2018-04-17T01:00:02.422Z,69.15
2018-04-17T01:00:28.585Z,69.15
2018-04-17T01:00:54.723Z,69.35
2018-04-17T01:01:20.861Z,68.87
2018-04-17T01:01:47.031Z,68.96
2018-04-17T01:02:13.166Z,68.68
2018-04-17T01:02:39.304Z,68.87
2018-04-17T01:03:05.511Z,69.06
2018-04-17T01:03:31.679Z,68.96
2018-04-17T01:03:57.819Z,68.87
2018-04-17T01:04:23.964Z,69.15
2018-04-17T01:04:50.095Z,68.68
2018-04-17T01:05:16.278Z,69.15
2018-04-17T01:05:42.427Z,69.25
2018-04-17T01:06:08.584Z,69.15
2018-04-17T01:06:34.740Z,69.44
2018-04-17T01:07:00.880Z,69.15
2018-04-17T01:07:27.017Z,69.35
2018-04-17T01:07:53.157Z,69.44
2018-04-17T01:08:19.295Z,69.15
2018-04-17T01:08:45.434Z,69.82
2018-04-17T01:09:11.597Z,70.01
2018-04-17T01:09:37.727Z,69.73
2018-04-17T01:10:03.864Z,69.64
2018-04-17T01:10:30.001Z,69.82
2018-04-17T01:10:56.146Z,69.25
2018-04-17T01:11:22.306Z,69.54
2018-04-17T01:11:48.447Z,69.44
2018-04-17T01:12:14.606Z,69.82
2018-04-17T01:12:40.765Z,69.6
2018-04-17T01:13:06.902Z,69.73
2018-04-17T01:13:33.039Z,69.82
2018-04-17T01:13:59.185Z,69.35
2018-04-17T01:14:25.344Z,69.25
2018-04-17T01:14:51.489Z,69.82
2018-04-17T01:15:17.626Z,69.73
2018-04-17T01:15:43.768Z,69.82
2018-04-17T01:16:09.974Z,69.73
2018-04-17T01:16:36.112Z,69.64
2018-04-17T01:17:02.253Z,69.73
2018-04-17T01:17:28.415Z,69.44
2018-04-17T01:17:54.551Z,69.73
2018-04-17T01:18:20.713Z,69.6
2018-04-17T01:18:46.880Z,69.54
2018-04-17T01:19:13.013Z,69.41
2018-04-17T01:19:39.174Z,69.73
2018-04-17T01:20:05.336Z,69.5
2018-04-17T01:20:31.471Z,69.73
2018-04-17T01:20:57.616Z,69.7
2018-04-17T01:21:23.748Z,69.73
2018-04-17T01:21:49.910Z,69.7
2018-04-17T01:22:16.042Z,70.36
2018-04-17T01:22:42.179Z,70.59
2018-04-17T01:23:08.376Z,70.36
2018-04-17T01:23:34.508Z,70.36
2018-04-17T01:24:00.664Z,70.5
2018-04-17T01:24:26.806Z,70.46
2018-04-17T01:24:52.969Z,70.56
2018-04-17T01:25:19.131Z,70.36
2018-04-17T01:25:45.316Z,69.89
2018-04-17T01:26:11.464Z,69.92
2018-04-17T01:26:37.626Z,69.98
2018-04-17T01:27:03.769Z,69.82
2018-04-17T01:27:29.905Z,70.56
2018-04-17T01:27:56.044Z,70.59
2018-04-17T01:28:22.193Z,70.4
2018-04-17T01:28:48.376Z,70.46
2018-04-17T01:29:14.522Z,69.89
2018-04-17T01:29:40.683Z,70.46
2018-04-17T01:30:06.823Z,70.17
2018-04-17T01:30:32.979Z,70.27
2018-04-17T01:30:59.116Z,70.46
2018-04-17T01:31:25.259Z,70.17
2018-04-17T01:31:51.399Z,70.59
2018-04-17T01:32:17.560Z,70.46
2018-04-17T01:32:43.703Z,70.27
2018-04-17T01:33:09.847Z,70.46
2018-04-17T01:33:35.981Z,70.36
2018-04-17T01:34:02.117Z,70.07
2018-04-17T01:34:28.284Z,69.98
2018-04-17T01:34:54.448Z,70.36
2018-04-17T01:35:20.589Z,70.94
2018-04-17T01:35:46.730Z,70.36
2018-04-17T01:36:12.860Z,70.46
2018-04-17T01:36:38.995Z,70.36
2018-04-17T01:37:05.133Z,70.36
2018-04-17T01:37:31.322Z,70.36
2018-04-17T01:37:57.463Z,70.17
2018-04-17T01:38:23.625Z,70.07
2018-04-17T01:38:49.791Z,70.07
2018-04-17T01:39:15.924Z,70.27
2018-04-17T01:39:42.065Z,70.56
2018-04-17T01:40:08.225Z,70.27
2018-04-17T01:40:34.364Z,70.46
2018-04-17T01:41:00.498Z,69.98
2018-04-17T01:41:26.641Z,70.17
2018-04-17T01:41:52.778Z,70.17
2018-04-17T01:42:18.947Z,70.46
2018-04-17T01:42:45.081Z,70.75
2018-04-17T01:43:11.219Z,70.75
2018-04-17T01:43:37.395Z,70.27
2018-04-17T01:44:03.530Z,70.94
2018-04-17T01:44:29.666Z,70.46
2018-04-17T01:44:55.810Z,71.03
2018-04-17T01:45:21.944Z,70.94
2018-04-17T01:45:48.083Z,70.94
2018-04-17T01:46:14.225Z,70.84
2018-04-17T01:46:40.389Z,70.84
2018-04-17T01:47:06.552Z,71.03
2018-04-17T01:47:32.690Z,70.84
2018-04-17T01:47:58.831Z,70.84
2018-04-17T01:48:24.968Z,71.13
2018-04-17T01:48:51.103Z,71.03
2018-04-17T01:49:17.243Z,71.13
2018-04-17T01:49:43.385Z,71.03
2018-04-17T01:50:09.531Z,70.94
2018-04-17T01:50:35.664Z,70.84
2018-04-17T01:51:01.830Z,71.42
2018-04-17T01:51:27.988Z,70.94
2018-04-17T01:51:54.131Z,70.75
2018-04-17T01:52:20.270Z,71.42
2018-04-17T01:52:46.438Z,71.32
2018-04-17T01:53:12.599Z,71.42
2018-04-17T01:53:38.737Z,71.32
2018-04-17T01:54:04.884Z,71.42
2018-04-17T01:54:31.020Z,71.42
2018-04-17T01:54:57.165Z,71.42
2018-04-17T01:55:23.325Z,71.03
2018-04-17T01:55:49.464Z,71.13
2018-04-17T01:56:15.627Z,71.13
2018-04-17T01:56:41.741Z,71.03
2018-04-17T01:57:07.929Z,71.03
2018-04-17T01:57:34.072Z,71.32
2018-04-17T01:58:00.207Z,71.32
2018-04-17T01:58:26.350Z,71.32
2018-04-17T01:58:52.487Z,71.42
2018-04-17T01:59:18.652Z,71.42
2018-04-17T01:59:44.784Z,71.32
2018-04-17T02:00:10.924Z,71.42
2018-04-17T02:00:37.068Z,71.42
2018-04-17T02:01:03.260Z,71.13
2018-04-17T02:01:29.399Z,71.13
2018-04-17T02:01:55.540Z,71.13
2018-04-17T02:02:21.673Z,71.03
2018-04-17T02:02:47.815Z,70.94
2018-04-17T02:03:13.951Z,71.03
2018-04-17T02:03:40.092Z,70.75
2018-04-17T02:04:06.234Z,70.94
2018-04-17T02:04:32.376Z,70.94
2018-04-17T02:04:58.537Z,70.94
2018-04-17T02:05:24.679Z,71.03
2018-04-17T02:05:50.843Z,70.75
2018-04-17T02:06:17.000Z,71.03
2018-04-17T02:06:43.158Z,71.13
2018-04-17T02:07:09.305Z,71.22
2018-04-17T02:07:35.437Z,71.13
2018-04-17T02:08:01.571Z,70.94
2018-04-17T02:08:27.734Z,71.13
2018-04-17T02:08:53.884Z,71.03
2018-04-17T02:09:20.015Z,71.03
2018-04-17T02:09:46.173Z,71.32
2018-04-17T02:10:12.314Z,70.75
2018-04-17T02:10:38.451Z,71.03
2018-04-17T02:11:04.618Z,71.13
2018-04-17T02:11:30.752Z,71.13
2018-04-17T02:11:56.899Z,71.03
2018-04-17T02:12:23.041Z,71.03
2018-04-17T02:12:49.171Z,71.51
2018-04-17T02:13:15.316Z,71.8
2018-04-17T02:13:41.455Z,71.61
2018-04-17T02:14:07.590Z,71.51
2018-04-17T02:14:33.730Z,72.08
2018-04-17T02:14:59.875Z,71.32
2018-04-17T02:15:26.009Z,71.13
2018-04-17T02:15:52.141Z,71.13
2018-04-17T02:16:18.284Z,71.32
2018-04-17T02:16:44.447Z,71.51
2018-04-17T02:17:10.587Z,71.42
2018-04-17T02:17:36.731Z,71.61
2018-04-17T02:18:02.864Z,71.61
2018-04-17T02:18:29.012Z,71.8
2018-04-17T02:18:55.150Z,70.65
2018-04-17T02:19:21.289Z,71.13
2018-04-17T02:19:47.459Z,71.03
2018-04-17T02:20:13.595Z,71.42
2018-04-17T02:20:39.732Z,71.51
2018-04-17T02:21:05.878Z,71.51
2018-04-17T02:21:32.037Z,71.22
2018-04-17T02:21:58.171Z,71.03
2018-04-17T02:22:24.313Z,71.03
2018-04-17T02:22:50.449Z,70.84
2018-04-17T02:23:16.617Z,71.13
2018-04-17T02:23:42.775Z,71.42
2018-04-17T02:24:08.922Z,71.32
2018-04-17T02:24:35.084Z,71.32
2018-04-17T02:25:01.223Z,71.8
2018-04-17T02:25:27.385Z,71.51
2018-04-17T02:25:53.518Z,71.61
2018-04-17T02:26:19.661Z,71.03
2018-04-17T02:26:45.800Z,71.51
2018-04-17T02:27:11.939Z,71.61
2018-04-17T02:27:38.073Z,71.7
2018-04-17T02:28:04.213Z,71.32
2018-04-17T02:28:30.349Z,71.42
2018-04-17T02:28:56.492Z,71.32
2018-04-17T02:29:22.630Z,71.7
2018-04-17T02:29:48.773Z,71.32
2018-04-17T02:30:14.914Z,71.42
2018-04-17T02:30:41.048Z,71.22
2018-04-17T02:31:07.214Z,71.42
2018-04-17T02:31:33.345Z,71.99
2018-04-17T02:31:59.491Z,71.22
2018-04-17T02:32:25.626Z,71.51
2018-04-17T02:32:51.768Z,70.56
2018-04-17T02:33:17.901Z,70.75
2018-04-17T02:33:44.044Z,71.03
2018-04-17T02:34:10.208Z,71.13
2018-04-17T02:34:36.390Z,71.61
2018-04-17T02:35:02.522Z,71.7
2018-04-17T02:35:28.688Z,71.7
2018-04-17T02:35:54.897Z,71.51
2018-04-17T02:36:21.061Z,71.42
2018-04-17T02:36:47.195Z,71.32
2018-04-17T02:37:13.336Z,71.32
2018-04-17T02:37:39.480Z,71.42
2018-04-17T02:38:05.654Z,70.94
2018-04-17T02:38:31.798Z,71.42
2018-04-17T02:38:57.937Z,70.94
2018-04-17T02:39:24.096Z,71.32
2018-04-17T02:39:50.258Z,71.32
2018-04-17T02:40:16.420Z,71.61
2018-04-17T02:40:42.582Z,71.32
2018-04-17T02:41:08.721Z,71.42
2018-04-17T02:41:34.858Z,71.13
2018-04-17T02:42:01.004Z,71.61
2018-04-17T02:42:27.144Z,71.42
2018-04-17T02:42:53.360Z,71.42
2018-04-17T02:43:19.499Z,71.51
2018-04-17T02:43:45.659Z,71.61
2018-04-17T02:44:11.852Z,71.42
2018-04-17T02:44:38.034Z,71.42
2018-04-17T02:45:04.195Z,71.32
2018-04-17T02:45:30.329Z,71.32
2018-04-17T02:45:56.500Z,71.42
2018-04-17T02:46:22.684Z,71.32
2018-04-17T02:46:48.818Z,71.57
2018-04-17T02:47:15.004Z,71.89
2018-04-17T02:47:41.201Z,71.51
2018-04-17T02:48:07.365Z,71.7
2018-04-17T02:48:33.529Z,71.99
2018-04-17T02:48:59.693Z,72.08
2018-04-17T02:49:25.887Z,72.24
2018-04-17T02:49:52.049Z,71.61
2018-04-17T02:50:18.246Z,71.7
2018-04-17T02:50:44.386Z,71.95
2018-04-17T02:51:10.572Z,71.99
2018-04-17T02:51:36.756Z,71.99
2018-04-17T02:52:02.916Z,71.99
2018-04-17T02:52:29.130Z,72.08
2018-04-17T02:52:55.272Z,71.99
2018-04-17T02:53:21.416Z,72.08
2018-04-17T02:53:47.586Z,71.7
2018-04-17T02:54:13.717Z,71.99
2018-04-17T02:54:39.914Z,71.76
2018-04-17T02:55:06.099Z,71.89
2018-04-17T02:55:32.257Z,71.89
2018-04-17T02:55:58.428Z,71.89
2018-04-17T02:56:24.570Z,71.8
2018-04-17T02:56:50.739Z,71.89
2018-04-17T02:57:16.898Z,71.89
2018-04-17T02:57:43.027Z,72.08
2018-04-17T02:58:09.177Z,71.95
2018-04-17T02:58:35.316Z,71.99
2018-04-17T02:59:01.448Z,71.8
2018-04-17T02:59:27.582Z,71.86
2018-04-17T02:59:53.747Z,71.99
2018-04-17T03:00:19.893Z,71.86
2018-04-17T03:00:46.028Z,71.86
2018-04-17T03:01:12.171Z,72.05
2018-04-17T03:01:38.306Z,71.89
2018-04-17T03:02:04.470Z,72.08
2018-04-17T03:02:30.634Z,72.14
2018-04-17T03:02:56.793Z,72.08
2018-04-17T03:03:22.957Z,72.43
2018-04-17T03:03:49.095Z,72.37
2018-04-17T03:04:15.258Z,71.86
2018-04-17T03:04:41.390Z,71.95
2018-04-17T03:05:07.561Z,72.05
2018-04-17T03:05:33.711Z,72.24
2018-04-17T03:05:59.850Z,72.43
2018-04-17T03:06:25.987Z,72.43
2018-04-17T03:06:52.148Z,72.33
2018-04-17T03:07:18.286Z,72.43
2018-04-17T03:07:44.484Z,72.24
2018-04-17T03:08:10.610Z,72.56
2018-04-17T03:08:36.802Z,72.14
2018-04-17T03:09:03.023Z,71.57
2018-04-17T03:09:29.185Z,71.76
2018-04-17T03:09:55.372Z,72.18
2018-04-17T03:10:21.533Z,71.7
2018-04-17T03:10:47.672Z,71.86
2018-04-17T03:11:13.856Z,71.95
2018-04-17T03:11:39.999Z,71.86
2018-04-17T03:12:06.131Z,71.57
2018-04-17T03:12:32.268Z,72.14
2018-04-17T03:12:58.426Z,72.18
2018-04-17T03:13:24.564Z,71.8
2018-04-17T03:13:50.693Z,71.76
2018-04-17T03:14:16.829Z,72.14
2018-04-17T03:14:42.971Z,71.86
2018-04-17T03:15:09.106Z,71.57
2018-04-17T03:15:35.243Z,71.57
2018-04-17T03:16:01.377Z,72.14
2018-04-17T03:16:27.550Z,71.99
2018-04-17T03:16:53.688Z,72.05
2018-04-17T03:17:19.827Z,72.18
2018-04-17T03:17:45.963Z,72.05
2018-04-17T03:18:12.118Z,71.95
2018-04-17T03:18:38.252Z,71.95
2018-04-17T03:19:04.397Z,72.24
2018-04-17T03:19:30.528Z,72.14
2018-04-17T03:19:56.669Z,71.95
2018-04-17T03:20:22.808Z,71.86
2018-04-17T03:20:48.942Z,72.05
2018-04-17T03:21:15.079Z,72.24
2018-04-17T03:21:41.219Z,72.08
2018-04-17T03:22:07.358Z,72.18
2018-04-17T03:22:33.496Z,72.28
2018-04-17T03:22:59.636Z,72.08
2018-04-17T03:23:25.771Z,71.86
2018-04-17T03:23:51.968Z,71.86
2018-04-17T03:24:18.104Z,71.89
2018-04-17T03:24:44.242Z,71.95
2018-04-17T03:25:10.386Z,71.95
2018-04-17T03:25:36.525Z,71.86
2018-04-17T03:26:02.661Z,72.24
2018-04-17T03:26:28.792Z,72.53
2018-04-17T03:26:54.935Z,72.33
2018-04-17T03:27:21.079Z,72.37
2018-04-17T03:27:47.216Z,72.53
2018-04-17T03:28:13.370Z,72.43
2018-04-17T03:28:39.512Z,72.24
2018-04-17T03:29:05.675Z,72.53
2018-04-17T03:29:31.818Z,72.24
2018-04-17T03:29:57.996Z,72.24
2018-04-17T03:30:24.195Z,72.05
2018-04-17T03:30:50.335Z,72.33
2018-04-17T03:31:16.513Z,72.05
2018-04-17T03:31:42.651Z,72.37
2018-04-17T03:32:08.810Z,72.33
2018-04-17T03:32:34.942Z,72.24
2018-04-17T03:33:01.112Z,71.7
2018-04-17T03:33:27.239Z,72.43
2018-04-17T03:33:53.381Z,72.05
2018-04-17T03:34:19.513Z,71.8
2018-04-17T03:34:45.655Z,71.76
2018-04-17T03:35:11.819Z,71.86
2018-04-17T03:35:37.959Z,72.05
2018-04-17T03:36:04.117Z,72.05
2018-04-17T03:36:30.259Z,72.24
2018-04-17T03:36:56.394Z,72.14
2018-04-17T03:37:22.562Z,71.86
2018-04-17T03:37:48.705Z,71.86
2018-04-17T03:38:14.844Z,71.86
2018-04-17T03:38:40.984Z,71.76
2018-04-17T03:39:07.119Z,72.05
2018-04-17T03:39:33.282Z,71.95
2018-04-17T03:39:59.419Z,72.33
2018-04-17T03:40:25.558Z,72.33
2018-04-17T03:40:51.715Z,72.53
2018-04-17T03:41:17.859Z,72.14
2018-04-17T03:41:43.992Z,71.95
2018-04-17T03:42:10.130Z,72.14
2018-04-17T03:42:36.269Z,72.53
2018-04-17T03:43:02.435Z,72.14
2018-04-17T03:43:28.575Z,72.24
2018-04-17T03:43:54.758Z,72.14
2018-04-17T03:44:20.900Z,72.05
2018-04-17T03:44:47.038Z,72.53
2018-04-17T03:45:13.199Z,72.24
2018-04-17T03:45:39.342Z,72.91
2018-04-17T03:46:05.477Z,73.1
2018-04-17T03:46:31.614Z,72.62
2018-04-17T03:46:57.756Z,72.53
2018-04-17T03:47:23.894Z,72.72
2018-04-17T03:47:50.032Z,72.53
2018-04-17T03:48:16.197Z,72.72
2018-04-17T03:48:42.349Z,72.72
2018-04-17T03:49:08.490Z,73.1
2018-04-17T03:49:34.653Z,72.72
2018-04-17T03:50:00.791Z,72.81
2018-04-17T03:50:26.954Z,73.1
2018-04-17T03:50:53.095Z,73.19
2018-04-17T03:51:19.253Z,73.39
2018-04-17T03:51:45.395Z,73.48
2018-04-17T03:52:11.538Z,73.48
2018-04-17T03:52:37.724Z,73.58
2018-04-17T03:53:03.887Z,73.63
2018-04-17T03:53:30.026Z,73.44
2018-04-17T03:53:56.164Z,73.73
2018-04-17T03:54:22.303Z,74.02
2018-04-17T03:54:48.444Z,74.11
2018-04-17T03:55:14.591Z,74.3
2018-04-17T03:55:40.746Z,74.78
2018-04-17T03:56:06.886Z,74.59
2018-04-17T03:56:33.047Z,74.59
2018-04-17T03:56:59.182Z,74.88
2018-04-17T03:57:25.319Z,75.07
2018-04-17T03:57:51.489Z,75.16
2018-04-17T03:58:17.628Z,75.54
2018-04-17T03:58:43.763Z,74.98
2018-04-17T03:59:09.959Z,74.98
2018-04-17T03:59:36.110Z,75.26
2018-04-17T04:00:02.256Z,75.83
2018-04-17T04:00:28.397Z,75.74
2018-04-17T04:00:54.555Z,75.64
2018-04-17T04:01:20.690Z,75.83
2018-04-17T04:01:46.828Z,75.83
2018-04-17T04:02:12.972Z,76.03
2018-04-17T04:02:39.125Z,76.03
2018-04-17T04:03:05.252Z,76.21
2018-04-17T04:03:31.419Z,75.45
2018-04-17T04:03:57.560Z,76.12
2018-04-17T04:04:23.724Z,75.83
2018-04-17T04:04:49.863Z,75.93
2018-04-17T04:05:16.001Z,75.93
2018-04-17T04:05:42.140Z,76.31
2018-04-17T04:06:08.284Z,76.37
2018-04-17T04:06:34.416Z,76.08
2018-04-17T04:07:00.557Z,76.75
2018-04-17T04:07:26.700Z,76.69
2018-04-17T04:07:52.836Z,75.89
2018-04-17T04:08:19.004Z,76.65
2018-04-17T04:08:45.184Z,76.46
2018-04-17T04:09:11.326Z,76.37
2018-04-17T04:09:37.485Z,76.37
2018-04-17T04:10:03.661Z,76.46
2018-04-17T04:10:29.798Z,76.46
2018-04-17T04:10:55.933Z,76.75
2018-04-17T04:11:22.079Z,76.27
2018-04-17T04:11:48.237Z,76.37
2018-04-17T04:12:14.373Z,76.08
2018-04-17T04:12:40.517Z,76.37
2018-04-17T04:13:06.651Z,76.37
2018-04-17T04:13:32.793Z,76.08
2018-04-17T04:13:58.933Z,76.27
2018-04-17T04:14:25.070Z,76.56
2018-04-17T04:14:51.266Z,76.37
2018-04-17T04:15:17.400Z,76.37
2018-04-17T04:15:43.559Z,76.21
2018-04-17T04:16:09.707Z,76.31
2018-04-17T04:16:35.838Z,76.5
2018-04-17T04:17:01.985Z,76.5
2018-04-17T04:17:28.175Z,76.6
2018-04-17T04:17:54.322Z,76.4
2018-04-17T04:18:20.460Z,75.83
2018-04-17T04:18:46.600Z,76.37
2018-04-17T04:19:12.734Z,75.74
2018-04-17T04:19:38.897Z,75.74
2018-04-17T04:20:05.063Z,75.74
2018-04-17T04:20:31.195Z,76.21
2018-04-17T04:20:57.342Z,76.31
2018-04-17T04:21:23.477Z,76.12
2018-04-17T04:21:49.618Z,76.31
2018-04-17T04:22:15.757Z,75.93
2018-04-17T04:22:41.896Z,76.6
2018-04-17T04:23:08.055Z,76.03
2018-04-17T04:23:34.197Z,76.21
2018-04-17T04:24:00.333Z,75.64
2018-04-17T04:24:26.477Z,75.83
2018-04-17T04:24:52.619Z,75.74
2018-04-17T04:25:18.785Z,75.54
2018-04-17T04:25:44.923Z,75.83
2018-04-17T04:26:11.058Z,75.64
2018-04-17T04:26:37.198Z,75.74
2018-04-17T04:27:03.338Z,75.74
2018-04-17T04:27:29.514Z,75.54
2018-04-17T04:27:55.637Z,76.21
2018-04-17T04:28:21.804Z,76.03
2018-04-17T04:28:47.944Z,76.03
2018-04-17T04:29:14.111Z,75.83
2018-04-17T04:29:40.241Z,75.64
2018-04-17T04:30:06.384Z,75.74
2018-04-17T04:30:32.540Z,76.03
2018-04-17T04:30:58.685Z,75.83
2018-04-17T04:31:24.825Z,76.12
2018-04-17T04:31:50.983Z,75.74
2018-04-17T04:32:17.127Z,75.93
2018-04-17T04:32:43.291Z,75.83
2018-04-17T04:33:09.429Z,75.74
2018-04-17T04:33:35.571Z,75.64
2018-04-17T04:34:01.708Z,75.83
2018-04-17T04:34:27.846Z,75.83
2018-04-17T04:34:54.033Z,75.45
2018-04-17T04:35:20.155Z,75.83
2018-04-17T04:35:46.294Z,76.03
2018-04-17T04:36:12.451Z,75.6
2018-04-17T04:36:38.624Z,76.12
2018-04-17T04:37:04.758Z,76.5
2018-04-17T04:37:30.898Z,76.31
2018-04-17T04:37:57.039Z,76.5
2018-04-17T04:38:23.196Z,76.79
2018-04-17T04:38:49.338Z,76.69
2018-04-17T04:39:15.472Z,76.12
2018-04-17T04:39:41.617Z,76.69
2018-04-17T04:40:07.753Z,76.69
2018-04-17T04:40:33.895Z,76.69
2018-04-17T04:41:00.034Z,76.46
2018-04-17T04:41:26.194Z,76.6
2018-04-17T04:41:52.337Z,76.27
2018-04-17T04:42:18.509Z,76.56
2018-04-17T04:42:44.652Z,76.18
2018-04-17T04:43:10.783Z,76.27
2018-04-17T04:43:36.956Z,76.27
2018-04-17T04:44:03.096Z,76.18
2018-04-17T04:44:29.231Z,76.18
2018-04-17T04:44:55.366Z,76.65
2018-04-17T04:45:21.507Z,77.03
2018-04-17T04:45:47.673Z,76.94
2018-04-17T04:46:13.838Z,77.13
2018-04-17T04:46:39.977Z,76.75
2018-04-17T04:47:06.135Z,77.03
2018-04-17T04:47:32.270Z,77.13
2018-04-17T04:47:58.409Z,76.94
2018-04-17T04:48:24.581Z,76.94
2018-04-17T04:48:50.720Z,76.84
2018-04-17T04:49:16.861Z,76.84
2018-04-17T04:49:42.996Z,76.65
2018-04-17T04:50:09.137Z,76.37
2018-04-17T04:50:35.276Z,76.46
2018-04-17T04:51:01.449Z,76.18
2018-04-17T04:51:27.578Z,76.46
2018-04-17T04:51:53.712Z,76.65
2018-04-17T04:52:19.852Z,76.37
2018-04-17T04:52:46.019Z,76.18
2018-04-17T04:53:12.157Z,75.98
2018-04-17T04:53:38.304Z,76.18
2018-04-17T04:54:04.463Z,76.27
2018-04-17T04:54:30.624Z,76.75
2018-04-17T04:54:56.758Z,76.18
2018-04-17T04:55:22.897Z,76.56
2018-04-17T04:55:49.036Z,77.13
2018-04-17T04:56:15.195Z,77.23
2018-04-17T04:56:41.334Z,76.75
2018-04-17T04:57:07.469Z,76.37
2018-04-17T04:57:33.639Z,76.94
2018-04-17T04:57:59.783Z,76.46
2018-04-17T04:58:25.920Z,76.65
2018-04-17T04:58:52.060Z,76.56
2018-04-17T04:59:18.194Z,76.46
2018-04-17T04:59:44.332Z,76.75
2018-04-17T05:00:10.492Z,77.03
2018-04-17T05:00:36.636Z,76.27
2018-04-17T05:01:02.792Z,76.27
2018-04-17T05:01:28.937Z,76.18
2018-04-17T05:01:55.102Z,76.27
2018-04-17T05:02:21.245Z,75.98
2018-04-17T05:02:47.415Z,76.56
2018-04-17T05:03:13.585Z,76.46
2018-04-17T05:03:39.741Z,76.84
2018-04-17T05:04:05.902Z,76.75
2018-04-17T05:04:32.048Z,76.46
2018-04-17T05:04:58.211Z,76.27
2018-04-17T05:05:24.342Z,76.18
2018-04-17T05:05:50.507Z,76.18
2018-04-17T05:06:16.668Z,76.27
2018-04-17T05:06:42.807Z,76.37
2018-04-17T05:07:08.949Z,76.37
2018-04-17T05:07:35.092Z,76.27
2018-04-17T05:08:01.225Z,76.18
2018-04-17T05:08:27.365Z,76.18
2018-04-17T05:08:53.505Z,76.18
2018-04-17T05:09:19.643Z,76.27
2018-04-17T05:09:45.784Z,76.18
2018-04-17T05:10:11.921Z,76.18
2018-04-17T05:10:38.064Z,75.98
2018-04-17T05:11:04.228Z,76.46
2018-04-17T05:11:30.381Z,76.37
2018-04-17T05:11:56.551Z,76.56
2018-04-17T05:12:22.708Z,76.18
2018-04-17T05:12:48.884Z,76.56
2018-04-17T05:13:14.983Z,76.37
2018-04-17T05:13:41.144Z,76.56
2018-04-17T05:14:07.282Z,76.75
2018-04-17T05:14:33.451Z,76.84
2018-04-17T05:14:59.583Z,76.84
2018-04-17T05:15:25.725Z,76.84
2018-04-17T05:15:51.861Z,76.75
2018-04-17T05:16:17.999Z,76.46
2018-04-17T05:16:44.138Z,76.56
2018-04-17T05:17:10.329Z,76.37
2018-04-17T05:17:36.462Z,76.08
2018-04-17T05:18:02.618Z,76.18
2018-04-17T05:18:28.851Z,76.18
2018-04-17T05:18:54.945Z,75.89
2018-04-17T05:19:21.102Z,76.18
2018-04-17T05:19:47.246Z,76.18
2018-04-17T05:20:13.386Z,76.18
2018-04-17T05:20:39.519Z,76.27
2018-04-17T05:21:05.655Z,76.18
2018-04-17T05:21:31.799Z,76.18
2018-04-17T05:21:57.941Z,76.31
2018-04-17T05:22:24.098Z,76.56
2018-04-17T05:22:50.233Z,76.37
2018-04-17T05:23:16.393Z,76.12
2018-04-17T05:23:42.553Z,76.5
2018-04-17T05:24:08.766Z,76.5
2018-04-17T05:24:34.852Z,76.4
2018-04-17T05:25:01.016Z,76.21
2018-04-17T05:25:27.162Z,76.21
2018-04-17T05:25:53.299Z,76.31
2018-04-17T05:26:19.435Z,76.5
2018-04-17T05:26:45.565Z,76.31
2018-04-17T05:27:11.706Z,76.31
2018-04-17T05:27:37.842Z,76.37
2018-04-17T05:28:03.981Z,76.31
2018-04-17T05:28:30.123Z,76.12
2018-04-17T05:28:56.267Z,76.4
2018-04-17T05:29:22.399Z,76.12
2018-04-17T05:29:48.540Z,76.6
2018-04-17T05:30:14.699Z,75.93
2018-04-17T05:30:40.843Z,76.31
2018-04-17T05:31:06.981Z,75.35
2018-04-17T05:31:33.119Z,75.54
2018-04-17T05:31:59.261Z,76.03
2018-04-17T05:32:25.397Z,75.54
2018-04-17T05:32:51.591Z,76.03
2018-04-17T05:33:17.756Z,75.83
2018-04-17T05:33:43.889Z,75.74
2018-04-17T05:34:10.055Z,75.74
2018-04-17T05:34:36.167Z,75.54
2018-04-17T05:35:02.311Z,75.54
2018-04-17T05:35:28.455Z,75.35
2018-04-17T05:35:54.585Z,75.45
2018-04-17T05:36:20.759Z,75.74
2018-04-17T05:36:46.917Z,75.83
2018-04-17T05:37:13.046Z,75.74
2018-04-17T05:37:39.187Z,75.74